createdAt,value
2023-05-03T00:01:43.916Z,50.37
2023-05-03T00:04:10.823Z,50.49
2023-05-03T00:06:37.386Z,50.97
2023-05-03T00:09:04.038Z,51.03
2023-05-03T00:11:30.581Z,51.28
2023-05-03T00:13:57.122Z,51.07
2023-05-03T00:16:23.660Z,50.65
2023-05-03T00:18:50.283Z,51.34
2023-05-03T00:21:17.262Z,50.32
2023-05-03T00:23:43.824Z,50.81
2023-05-03T00:26:10.473Z,50.95
2023-05-03T00:28:37.448Z,51.50
2023-05-03T00:31:09.492Z,52.19
2023-05-03T00:33:37.453Z,52.03
2023-05-03T00:36:11.477Z,52.95
2023-05-03T00:38:40.252Z,52.97
2023-05-03T00:41:10.843Z,52.89
2023-05-03T00:43:37.812Z,52.63
2023-05-03T00:46:16.067Z,52.45
2023-05-03T00:48:45.209Z,52.17
2023-05-03T00:51:14.505Z,52.48
2023-05-03T00:53:42.128Z,52.46
2023-05-03T00:56:09.839Z,52.69
2023-05-03T00:58:39.935Z,53.02
2023-05-03T01:01:10.006Z,52.57
2023-05-03T01:03:41.098Z,52.74
2023-05-03T01:06:33.769Z,51.65
2023-05-03T01:09:18.978Z,52.58
2023-05-03T01:12:19.647Z,53.13
2023-05-03T01:15:26.697Z,52.96
2023-05-03T01:17:59.748Z,53.47
2023-05-03T01:20:30.844Z,53.74
2023-05-03T01:23:16.164Z,53.53
2023-05-03T01:25:42.709Z,53.72
2023-05-03T01:28:09.351Z,53.27
2023-05-03T01:30:37.559Z,53.30
2023-05-03T01:33:22.780Z,53.10
2023-05-03T01:35:55.708Z,53.79
2023-05-03T01:38:23.163Z,53.67
2023-05-03T01:40:58.671Z,53.83
2023-05-03T01:43:26.200Z,53.38
2023-05-03T01:45:52.778Z,53.39
2023-05-03T01:48:19.692Z,52.72
2023-05-03T01:50:46.807Z,52.76
2023-05-03T01:53:13.838Z,52.85
2023-05-03T01:55:40.451Z,52.26
2023-05-03T01:58:07.181Z,52.31
2023-05-03T02:00:33.842Z,52.32
2023-05-03T02:03:00.574Z,53.19
2023-05-03T02:05:27.223Z,53.73
2023-05-03T02:07:54.032Z,53.88
2023-05-03T02:10:20.966Z,53.80
2023-05-03T02:12:47.648Z,53.56
2023-05-03T02:15:14.751Z,53.38
2023-05-03T02:17:43.142Z,53.86
2023-05-03T02:20:09.935Z,54.03
2023-05-03T02:22:36.969Z,53.40
2023-05-03T02:25:03.762Z,53.30
2023-05-03T02:27:30.355Z,54.03
2023-05-03T02:29:56.854Z,52.84
2023-05-03T02:32:24.151Z,53.74
2023-05-03T02:34:50.776Z,53.89
2023-05-03T02:37:21.041Z,53.86
2023-05-03T02:39:48.086Z,53.21
2023-05-03T02:42:16.142Z,53.10
2023-05-03T02:44:46.225Z,53.23
2023-05-03T02:47:12.778Z,53.90
2023-05-03T02:49:41.874Z,53.77
2023-05-03T02:52:08.491Z,53.70
2023-05-03T02:54:35.027Z,53.61
2023-05-03T02:57:07.537Z,53.22
2023-05-03T02:59:34.148Z,53.05
2023-05-03T03:02:01.537Z,52.83
2023-05-03T03:04:29.059Z,52.29
2023-05-03T03:06:56.736Z,51.99
2023-05-03T03:09:23.508Z,52.56
2023-05-03T03:11:53.460Z,52.54
2023-05-03T03:14:20.729Z,52.79
2023-05-03T03:16:47.834Z,52.84
2023-05-03T03:19:15.030Z,52.62
2023-05-03T03:21:41.752Z,52.63
2023-05-03T03:24:09.142Z,52.23
2023-05-03T03:26:35.736Z,52.78
2023-05-03T03:29:02.645Z,53.16
2023-05-03T03:31:29.705Z,53.89
2023-05-03T03:33:56.501Z,53.90
2023-05-03T03:36:27.874Z,53.14
2023-05-03T03:38:54.399Z,52.58
2023-05-03T03:41:21.275Z,52.71
2023-05-03T03:43:49.028Z,53.50
2023-05-03T03:46:18.988Z,53.55
2023-05-03T03:48:48.904Z,53.85
2023-05-03T03:51:16.060Z,53.71
2023-05-03T03:53:46.743Z,53.30
2023-05-03T03:56:13.326Z,53.61
2023-05-03T03:58:40.982Z,53.89
2023-05-03T04:01:09.062Z,54.00
2023-05-03T04:03:36.442Z,53.90
2023-05-03T04:06:03.806Z,53.54
2023-05-03T04:08:30.838Z,53.70
2023-05-03T04:10:57.417Z,54.21
2023-05-03T04:13:25.467Z,53.93
2023-05-03T04:15:56.173Z,54.21
2023-05-03T04:18:23.353Z,53.88
2023-05-03T04:20:51.613Z,54.07
2023-05-03T04:23:18.206Z,53.91
2023-05-03T04:25:48.442Z,54.19
2023-05-03T04:28:16.592Z,54.03
2023-05-03T04:30:47.294Z,54.43
2023-05-03T04:33:16.892Z,53.98
2023-05-03T04:35:43.857Z,54.28
2023-05-03T04:38:14.528Z,53.81
2023-05-03T04:40:41.176Z,54.23
2023-05-03T04:43:09.589Z,54.48
2023-05-03T04:45:39.782Z,54.36
2023-05-03T04:48:09.844Z,55.08
2023-05-03T04:50:36.573Z,55.04
2023-05-03T04:53:04.383Z,55.07
2023-05-03T04:55:34.076Z,55.22
2023-05-03T04:58:02.829Z,55.21
2023-05-03T05:00:29.737Z,55.30
2023-05-03T05:03:02.007Z,54.94
2023-05-03T05:05:31.515Z,55.02
2023-05-03T05:07:59.625Z,54.87
2023-05-03T05:10:30.927Z,54.70
2023-05-03T05:12:58.472Z,54.68
2023-05-03T05:15:25.683Z,54.92
2023-05-03T05:17:52.423Z,55.78
2023-05-03T05:20:20.192Z,55.49
2023-05-03T05:22:49.491Z,54.99
2023-05-03T05:25:16.130Z,55.01
2023-05-03T05:27:43.337Z,55.86
2023-05-03T05:30:10.072Z,55.14
2023-05-03T05:32:39.563Z,55.23
2023-05-03T05:35:09.438Z,54.69
2023-05-03T05:37:36.531Z,54.98
2023-05-03T05:40:05.694Z,55.26
2023-05-03T05:42:38.167Z,55.11
2023-05-03T05:45:07.978Z,55.60
2023-05-03T05:47:35.414Z,56.00
2023-05-03T05:50:09.593Z,54.95
2023-05-03T05:52:42.628Z,54.96
2023-05-03T05:55:13.572Z,54.64
2023-05-03T05:57:41.041Z,54.72
2023-05-03T06:00:14.455Z,55.25
2023-05-03T06:02:42.373Z,55.06
2023-05-03T06:05:12.516Z,55.08
2023-05-03T06:07:39.120Z,55.17
2023-05-03T06:10:07.016Z,54.81
2023-05-03T06:12:35.001Z,54.67
2023-05-03T06:15:03.311Z,54.88
2023-05-03T06:17:35.932Z,54.78
2023-05-03T06:20:04.555Z,53.70
2023-05-03T06:22:31.664Z,54.23
2023-05-03T06:24:58.509Z,52.65
2023-05-03T06:27:26.021Z,53.40
2023-05-03T06:29:53.533Z,53.78
2023-05-03T06:32:22.132Z,53.85
2023-05-03T06:34:49.600Z,53.68
2023-05-03T06:37:17.238Z,54.27
2023-05-03T06:39:44.658Z,54.17
2023-05-03T06:42:11.452Z,53.75
2023-05-03T06:44:40.331Z,52.29
2023-05-03T06:47:07.314Z,53.41
2023-05-03T06:49:34.049Z,53.61
2023-05-03T06:52:00.727Z,51.67
2023-05-03T06:54:27.226Z,52.38
2023-05-03T06:56:53.766Z,52.61
2023-05-03T06:59:20.449Z,52.38
2023-05-03T07:01:47.104Z,51.25
2023-05-03T07:04:13.872Z,49.83
2023-05-03T07:06:55.273Z,50.08
2023-05-03T07:09:32.048Z,48.82
2023-05-03T07:12:08.523Z,48.78
2023-05-03T07:14:35.037Z,48.43
2023-05-03T07:17:01.569Z,48.02
2023-05-03T07:19:28.078Z,48.10
2023-05-03T07:21:54.654Z,45.41
2023-05-03T07:24:21.152Z,43.93
2023-05-03T07:26:49.028Z,42.85
2023-05-03T07:29:15.672Z,43.64
2023-05-03T07:31:42.446Z,41.94
2023-05-03T07:34:08.943Z,43.23
2023-05-03T07:36:35.551Z,39.92
2023-05-03T07:39:02.087Z,38.97
2023-05-03T07:41:28.619Z,40.48
2023-05-03T07:43:55.814Z,37.94
2023-05-03T07:46:23.148Z,38.38
2023-05-03T07:48:49.697Z,40.30
2023-05-03T07:51:16.515Z,41.31
2023-05-03T07:53:44.037Z,41.22
2023-05-03T07:56:11.427Z,41.02
2023-05-03T07:58:40.460Z,40.57
2023-05-03T08:01:07.733Z,39.74
2023-05-03T08:03:34.620Z,40.98
2023-05-03T08:06:01.552Z,39.71
2023-05-03T08:08:28.355Z,41.26
2023-05-03T08:10:54.968Z,42.58
2023-05-03T08:13:22.625Z,41.92
2023-05-03T08:15:50.667Z,41.54
2023-05-03T08:18:17.256Z,41.67
2023-05-03T08:20:44.798Z,40.74
2023-05-03T08:23:11.343Z,41.88
2023-05-03T08:25:38.075Z,41.28
2023-05-03T08:28:04.744Z,42.37
2023-05-03T08:30:31.507Z,43.26
2023-05-03T08:32:58.157Z,42.68
2023-05-03T08:35:25.826Z,43.30
2023-05-03T08:37:52.374Z,43.34
2023-05-03T08:40:22.699Z,42.79
2023-05-03T08:42:52.675Z,41.49
2023-05-03T08:45:19.523Z,42.47
2023-05-03T08:47:46.083Z,40.99
2023-05-03T08:50:16.257Z,41.63
2023-05-03T08:52:43.286Z,40.83
2023-05-03T08:55:11.092Z,41.60
2023-05-03T08:57:37.982Z,41.19
2023-05-03T09:00:06.576Z,39.42
2023-05-03T09:02:34.919Z,40.58
2023-05-03T09:05:01.866Z,41.14
2023-05-03T09:07:28.798Z,40.96
2023-05-03T09:09:57.068Z,39.47
2023-05-03T09:12:36.978Z,40.70
2023-05-03T09:15:04.470Z,42.22
2023-05-03T09:17:31.112Z,40.99
2023-05-03T09:19:58.922Z,40.28
2023-05-03T09:22:28.431Z,40.75
2023-05-03T09:24:57.271Z,40.00
2023-05-03T09:27:25.573Z,39.90
2023-05-03T09:29:52.998Z,41.28
2023-05-03T09:32:22.203Z,39.35
2023-05-03T09:34:48.798Z,40.19
2023-05-03T09:37:15.496Z,38.85
2023-05-03T09:39:43.872Z,39.78
2023-05-03T09:42:19.546Z,40.66
2023-05-03T09:44:53.704Z,41.97
2023-05-03T09:47:21.902Z,39.60
2023-05-03T09:49:48.597Z,38.50
2023-05-03T09:52:15.126Z,40.33
2023-05-03T09:54:42.230Z,40.59
2023-05-03T09:57:09.375Z,39.64
2023-05-03T09:59:37.997Z,38.83
2023-05-03T10:02:07.464Z,38.60
2023-05-03T10:04:51.223Z,39.71
2023-05-03T10:07:20.655Z,40.49
2023-05-03T10:09:47.872Z,38.48
2023-05-03T10:12:17.470Z,38.46
2023-05-03T10:14:48.659Z,38.07
2023-05-03T10:17:45.551Z,38.42
2023-05-03T10:20:33.267Z,38.02
2023-05-03T10:23:12.164Z,38.67
2023-05-03T10:25:59.788Z,39.21
2023-05-03T10:28:26.450Z,39.95
2023-05-03T10:30:53.043Z,41.06
2023-05-03T10:33:19.647Z,40.44
2023-05-03T10:35:53.009Z,38.30
2023-05-03T10:38:27.588Z,38.44
2023-05-03T10:40:55.610Z,38.76
2023-05-03T10:43:31.418Z,38.49
2023-05-03T10:46:03.020Z,38.15
2023-05-03T10:48:30.894Z,39.84
2023-05-03T10:51:18.459Z,39.69
2023-05-03T10:53:45.081Z,39.26
2023-05-03T10:56:15.155Z,38.54
2023-05-03T10:58:46.684Z,38.63
2023-05-03T11:01:16.082Z,37.80
2023-05-03T11:03:52.192Z,38.60
2023-05-03T11:06:35.816Z,38.35
2023-05-03T11:09:05.872Z,36.52
2023-05-03T11:11:33.294Z,38.16
2023-05-03T11:13:59.889Z,38.75
2023-05-03T11:16:27.178Z,39.01
2023-05-03T11:18:54.122Z,36.86
2023-05-03T11:21:21.200Z,37.78
2023-05-03T11:23:48.054Z,37.23
2023-05-03T11:26:14.916Z,38.23
2023-05-03T11:28:43.532Z,37.46
2023-05-03T11:31:11.308Z,37.58
2023-05-03T11:33:39.481Z,39.09
2023-05-03T11:36:09.429Z,37.24
2023-05-03T11:38:39.292Z,38.49
2023-05-03T11:41:17.340Z,36.37
2023-05-03T11:43:57.792Z,37.90
2023-05-03T11:46:35.402Z,36.77
2023-05-03T11:49:03.398Z,36.90
2023-05-03T11:51:31.266Z,37.05
2023-05-03T11:54:06.882Z,37.78
2023-05-03T11:56:40.074Z,35.77
2023-05-03T11:59:06.561Z,37.96
2023-05-03T12:01:33.271Z,37.17
2023-05-03T12:04:02.648Z,36.34
2023-05-03T12:06:34.448Z,36.38
2023-05-03T12:09:03.492Z,37.28
2023-05-03T12:11:32.694Z,38.54
2023-05-03T12:14:02.281Z,37.56
2023-05-03T12:16:47.379Z,35.20
2023-05-03T12:19:24.505Z,35.89
2023-05-03T12:22:04.721Z,38.13
2023-05-03T12:24:39.405Z,37.03
2023-05-03T12:27:08.438Z,35.33
2023-05-03T12:29:35.721Z,36.47
2023-05-03T12:32:03.812Z,36.30
2023-05-03T12:34:35.414Z,36.02
2023-05-03T12:37:05.758Z,35.69
2023-05-03T12:39:39.218Z,35.47
2023-05-03T12:42:08.858Z,36.39
2023-05-03T12:44:42.651Z,36.75
2023-05-03T12:47:10.533Z,36.20
2023-05-03T12:49:38.998Z,36.40
2023-05-03T12:52:35.252Z,36.44
2023-05-03T12:54:55.751Z,36.33
2023-05-03T12:57:24.400Z,34.04
2023-05-03T12:59:55.115Z,36.31
2023-05-03T13:05:00.435Z,36.40
2023-05-03T13:07:31.246Z,35.02
2023-05-03T13:12:32.407Z,34.15
2023-05-03T13:14:59.033Z,35.71
2023-05-03T13:17:26.145Z,34.55
2023-05-03T13:19:53.111Z,35.04
2023-05-03T13:22:19.652Z,36.05
2023-05-03T13:24:48.071Z,34.60
2023-05-03T13:27:16.057Z,35.34
2023-05-03T13:29:42.651Z,33.79
2023-05-03T13:32:09.728Z,33.52
2023-05-03T13:34:36.662Z,34.32
2023-05-03T13:37:06.638Z,33.95
2023-05-03T13:39:33.375Z,33.98
2023-05-03T13:42:00.281Z,34.78
2023-05-03T13:44:26.942Z,34.90
2023-05-03T13:46:54.016Z,34.56
2023-05-03T13:49:21.365Z,34.01
2023-05-03T13:51:48.101Z,34.35
2023-05-03T13:54:14.688Z,35.44
2023-05-03T13:56:42.713Z,35.35
2023-05-03T13:59:12.234Z,34.26
2023-05-03T14:01:39.321Z,35.83
2023-05-03T14:04:06.368Z,34.05
2023-05-03T14:06:33.816Z,33.07
2023-05-03T14:09:01.676Z,35.40
2023-05-03T14:11:30.267Z,34.41
2023-05-03T14:13:58.147Z,35.25
2023-05-03T14:16:40.159Z,35.63
2023-05-03T14:19:09.921Z,34.20
2023-05-03T14:21:36.774Z,35.05
2023-05-03T14:24:03.545Z,35.60
2023-05-03T14:26:30.181Z,34.38
2023-05-03T14:28:56.972Z,35.47
2023-05-03T14:31:23.671Z,36.86
2023-05-03T14:33:50.244Z,34.78
2023-05-03T14:36:16.796Z,35.00
2023-05-03T14:38:43.615Z,34.85
2023-05-03T14:41:10.248Z,33.58
2023-05-03T14:43:37.384Z,35.55
2023-05-03T14:46:04.263Z,35.23
2023-05-03T14:48:30.836Z,33.89
2023-05-03T14:50:57.614Z,32.94
2023-05-03T14:53:24.251Z,34.74
2023-05-03T14:55:51.211Z,35.06
2023-05-03T14:58:18.521Z,34.09
2023-05-03T15:00:45.250Z,34.40
2023-05-03T15:03:12.792Z,34.23
2023-05-03T15:05:47.500Z,34.34
2023-05-03T15:08:16.700Z,34.65
2023-05-03T15:10:47.605Z,34.97
2023-05-03T15:13:16.118Z,35.57
2023-05-03T15:15:43.871Z,32.58
2023-05-03T15:18:11.284Z,32.67
2023-05-03T15:20:38.311Z,34.71
2023-05-03T15:23:05.185Z,34.11
2023-05-03T15:25:32.356Z,35.77
2023-05-03T15:28:01.895Z,34.93
2023-05-03T15:30:31.108Z,34.65
2023-05-03T15:32:57.842Z,34.46
2023-05-03T15:35:24.549Z,35.46
2023-05-03T15:37:51.347Z,36.11
2023-05-03T15:40:18.616Z,34.54
2023-05-03T15:42:45.362Z,33.61
2023-05-03T15:45:13.188Z,34.39
2023-05-03T15:47:39.851Z,35.11
2023-05-03T15:50:07.848Z,36.48
2023-05-03T15:52:34.926Z,36.15
2023-05-03T15:55:01.684Z,35.79
2023-05-03T15:57:29.637Z,33.70
2023-05-03T15:59:56.927Z,33.60
2023-05-03T16:02:23.684Z,35.71
2023-05-03T16:04:50.787Z,35.42
2023-05-03T16:07:17.891Z,35.37
2023-05-03T16:09:44.656Z,35.15
2023-05-03T16:12:11.331Z,35.37
2023-05-03T16:14:38.016Z,34.12
2023-05-03T16:17:04.538Z,35.68
2023-05-03T16:19:31.901Z,37.22
2023-05-03T16:21:58.618Z,36.92
2023-05-03T16:24:25.433Z,35.68
2023-05-03T16:26:52.573Z,36.22
2023-05-03T16:29:19.383Z,34.69
2023-05-03T16:31:46.915Z,33.79
2023-05-03T16:34:14.142Z,35.93
2023-05-03T16:36:42.977Z,35.94
2023-05-03T16:39:11.352Z,35.40
2023-05-03T16:41:38.403Z,35.57
2023-05-03T16:44:07.469Z,34.37
2023-05-03T16:46:44.071Z,34.62
2023-05-03T16:49:11.292Z,35.25
2023-05-03T16:51:37.965Z,35.44
2023-05-03T16:54:04.955Z,36.00
2023-05-03T16:56:32.095Z,35.47
2023-05-03T16:59:02.937Z,35.06
2023-05-03T17:01:29.529Z,35.83
2023-05-03T17:03:56.074Z,36.05
2023-05-03T17:06:23.151Z,36.08
2023-05-03T17:08:49.806Z,36.02
2023-05-03T17:11:16.576Z,36.98
2023-05-03T17:13:43.417Z,35.96
2023-05-03T17:16:15.069Z,37.89
2023-05-03T17:18:42.470Z,37.46
2023-05-03T17:21:09.913Z,36.98
2023-05-03T17:23:38.259Z,36.64
2023-05-03T17:26:08.285Z,37.36
2023-05-03T17:28:35.620Z,37.79
2023-05-03T17:31:12.514Z,37.05
2023-05-03T17:33:39.104Z,35.97
2023-05-03T17:36:05.993Z,36.87
2023-05-03T17:38:33.815Z,36.21
2023-05-03T17:41:07.581Z,38.25
2023-05-03T17:43:35.532Z,37.51
2023-05-03T17:46:10.884Z,38.10
2023-05-03T17:48:39.674Z,38.56
2023-05-03T17:51:07.672Z,37.58
2023-05-03T17:53:34.460Z,38.25
2023-05-03T17:56:01.009Z,38.28
2023-05-03T17:58:27.694Z,39.61
2023-05-03T18:00:54.217Z,38.19
2023-05-03T18:03:20.880Z,39.46
2023-05-03T18:05:47.979Z,38.58
2023-05-03T18:08:14.585Z,38.83
2023-05-03T18:10:42.986Z,38.67
2023-05-03T18:13:10.729Z,40.15
2023-05-03T18:15:41.854Z,39.16
2023-05-03T18:18:08.855Z,38.95
2023-05-03T18:20:35.688Z,38.76
2023-05-03T18:23:02.592Z,38.91
2023-05-03T18:25:29.265Z,39.69
2023-05-03T18:27:57.076Z,39.23
2023-05-03T18:30:26.112Z,40.03
2023-05-03T18:32:52.677Z,41.32
2023-05-03T18:35:19.275Z,40.31
2023-05-03T18:37:46.030Z,39.92
2023-05-03T18:40:12.732Z,40.44
2023-05-03T18:42:39.375Z,40.35
2023-05-03T18:45:06.948Z,40.07
2023-05-03T18:47:33.593Z,41.13
2023-05-03T18:50:00.127Z,39.86
2023-05-03T18:52:26.681Z,40.59
2023-05-03T18:54:54.064Z,40.51
2023-05-03T18:57:20.737Z,40.33
2023-05-03T18:59:59.586Z,40.72
2023-05-03T19:02:30.410Z,40.30
2023-05-03T19:04:57.393Z,40.92
2023-05-03T19:07:24.151Z,40.71
2023-05-03T19:09:55.009Z,40.78
2023-05-03T19:12:22.151Z,40.99
2023-05-03T19:14:48.841Z,40.18
2023-05-03T19:17:15.477Z,41.51
2023-05-03T19:19:41.973Z,41.44
2023-05-03T19:22:08.565Z,41.82
2023-05-03T19:24:35.249Z,41.84
2023-05-03T19:27:02.126Z,40.88
2023-05-03T19:29:29.599Z,40.27
2023-05-03T19:31:56.323Z,40.41
2023-05-03T19:34:22.851Z,41.54
2023-05-03T19:36:50.080Z,41.30
2023-05-03T19:39:16.579Z,41.46
2023-05-03T19:41:43.491Z,42.02
2023-05-03T19:44:10.305Z,41.34
2023-05-03T19:46:36.891Z,40.71
2023-05-03T19:49:03.950Z,41.30
2023-05-03T19:51:31.245Z,40.98
2023-05-03T19:53:57.764Z,42.74
2023-05-03T19:56:25.000Z,42.43
2023-05-03T19:58:51.652Z,43.41
2023-05-03T20:01:18.457Z,42.92
2023-05-03T20:03:45.453Z,44.18
2023-05-03T20:06:12.299Z,43.59
2023-05-03T20:08:39.053Z,43.88
2023-05-03T20:11:05.808Z,43.46
2023-05-03T20:13:33.586Z,42.94
2023-05-03T20:16:04.685Z,43.75
2023-05-03T20:18:31.603Z,43.20
2023-05-03T20:20:58.271Z,43.62
2023-05-03T20:23:25.072Z,42.96
2023-05-03T20:25:51.668Z,42.85
2023-05-03T20:28:18.591Z,42.75
2023-05-03T20:30:45.316Z,42.33
2023-05-03T20:33:12.331Z,43.18
2023-05-03T20:35:39.039Z,42.95
2023-05-03T20:38:05.756Z,43.33
2023-05-03T20:40:35.708Z,42.57
2023-05-03T20:43:02.564Z,43.19
2023-05-03T20:45:29.787Z,43.65
2023-05-03T20:47:56.504Z,44.03
2023-05-03T20:50:23.193Z,43.52
2023-05-03T20:52:50.113Z,44.21
2023-05-03T20:55:16.928Z,44.34
2023-05-03T20:57:43.822Z,44.38
2023-05-03T21:00:17.537Z,43.73
2023-05-03T21:02:44.900Z,44.52
2023-05-03T21:05:11.808Z,44.78
2023-05-03T21:07:38.700Z,43.70
2023-05-03T21:10:07.145Z,42.99
2023-05-03T21:12:34.740Z,43.72
2023-05-03T21:15:02.002Z,44.30
2023-05-03T21:17:28.809Z,43.89
2023-05-03T21:19:55.742Z,44.90
2023-05-03T21:22:22.779Z,44.95
2023-05-03T21:24:50.053Z,45.00
2023-05-03T21:27:16.792Z,45.27
2023-05-03T21:29:43.276Z,45.15
2023-05-03T21:32:09.957Z,44.47
2023-05-03T21:34:36.577Z,44.65
2023-05-03T21:37:03.646Z,44.70
2023-05-03T21:39:30.233Z,44.82
2023-05-03T21:41:56.961Z,43.57
2023-05-03T21:44:23.484Z,44.19
2023-05-03T21:46:50.083Z,44.72
2023-05-03T21:49:16.675Z,44.76
2023-05-03T21:51:43.348Z,43.80
2023-05-03T21:54:09.848Z,43.22
2023-05-03T21:56:36.504Z,43.76
2023-05-03T21:59:03.086Z,44.09
2023-05-03T22:01:29.802Z,43.91
2023-05-03T22:03:56.509Z,43.69
2023-05-03T22:06:23.271Z,43.58
2023-05-03T22:08:49.772Z,43.52
2023-05-03T22:11:16.362Z,43.67
2023-05-03T22:13:58.788Z,44.18
2023-05-03T22:16:29.660Z,44.55
2023-05-03T22:18:56.269Z,44.17
2023-05-03T22:21:22.852Z,43.79
2023-05-03T22:23:49.428Z,44.79
2023-05-03T22:26:16.345Z,45.79
2023-05-03T22:28:42.900Z,44.37
2023-05-03T22:31:09.587Z,44.13
2023-05-03T22:33:36.073Z,44.24
2023-05-03T22:36:02.686Z,44.28
2023-05-03T22:38:29.201Z,44.10
2023-05-03T22:40:55.790Z,43.87
2023-05-03T22:43:22.276Z,43.58
2023-05-03T22:45:48.883Z,43.23
2023-05-03T22:48:15.425Z,43.81
2023-05-03T22:50:42.020Z,43.95
2023-05-03T22:53:08.653Z,44.00
2023-05-03T22:55:35.296Z,43.56
2023-05-03T22:58:01.895Z,43.40
2023-05-03T23:00:28.451Z,43.63
2023-05-03T23:02:55.518Z,44.04
2023-05-03T23:05:22.234Z,44.12
2023-05-03T23:07:49.000Z,43.62
2023-05-03T23:10:15.693Z,43.82
2023-05-03T23:12:42.442Z,44.04
2023-05-03T23:15:10.316Z,44.19
2023-05-03T23:17:36.990Z,44.39
2023-05-03T23:20:05.431Z,44.73
2023-05-03T23:22:32.298Z,44.83
2023-05-03T23:24:59.108Z,44.96
2023-05-03T23:27:25.681Z,44.88
2023-05-03T23:29:52.891Z,44.91
2023-05-03T23:32:20.160Z,44.33
2023-05-03T23:34:47.185Z,44.12
2023-05-03T23:37:13.734Z,44.48
2023-05-03T23:39:44.338Z,44.42
2023-05-03T23:42:12.162Z,44.74
2023-05-03T23:44:53.797Z,44.61
2023-05-03T23:47:22.589Z,44.17
2023-05-03T23:49:49.578Z,44.88
2023-05-03T23:52:18.873Z,44.50
2023-05-03T23:54:45.724Z,45.00
2023-05-03T23:57:12.266Z,44.63
2023-05-03T23:59:38.800Z,44.29
